Time;durP1;ratioP1;P1;durP2;ratioP2;P2;SDS_P1;SDS_P2;PMS_P1;PMS_P2;Temp;Humidity;BMP_temperature;BMP_pressure;BME280_temperature;BME280_humidity;BME280_pressure;Samples;Min_cycle;Max_cycle;Signal;HPM_P1;HPM_P2
2022/03/13 00:02:23;;;;;;;13.00;9.32;;;;;;;6.07;75.80;101666.69;6238857;22;20468;-78
2022/03/13 00:04:57;;;;;;;11.07;9.70;;;;;;;6.02;75.54;101671.78;6241613;22;20023;-76
2022/03/13 00:07:29;;;;;;;13.73;8.85;;;;;;;6.01;75.88;101673.50;6254367;22;20448;-78
2022/03/13 00:09:58;;;;;;;13.88;8.80;;;;;;;5.99;75.81;101674.28;6297722;22;20023;-77
2022/03/13 00:12:31;;;;;;;14.00;9.07;;;;;;;5.97;76.02;101673.34;6265922;22;20027;-78
2022/03/13 00:15:03;;;;;;;9.23;7.28;;;;;;;5.95;76.28;101673.28;6238129;22;20019;-78
2022/03/13 00:17:31;;;;;;;11.95;9.25;;;;;;;5.92;76.18;101669.66;6250866;22;20019;-78
2022/03/13 00:20:04;;;;;;;11.20;6.47;;;;;;;5.86;76.20;101673.81;6252332;22;20345;-80
2022/03/13 00:22:36;;;;;;;14.23;8.90;;;;;;;5.86;75.81;101675.56;6230919;22;20015;-78
2022/03/13 00:25:08;;;;;;;12.55;9.13;;;;;;;5.83;75.73;101668.47;6283237;22;20633;-78
2022/03/13 00:27:43;;;;;;;14.50;9.68;;;;;;;5.81;76.34;101664.03;6298494;22;20019;-78
2022/03/13 00:30:12;;;;;;;13.48;8.55;;;;;;;5.77;75.96;101660.41;6248813;22;20015;-78
2022/03/13 00:32:42;;;;;;;;;;;;;;;5.75;76.45;101669.94;6294649;22;20019;-77
2022/03/13 00:35:13;;;;;;;12.50;9.07;;;;;;;5.72;75.83;101664.59;6260865;22;20032;-77
2022/03/13 00:37:42;;;;;;;12.43;8.65;;;;;;;5.70;75.98;101666.25;6292903;22;20019;-77
2022/03/13 00:40:17;;;;;;;13.95;9.27;;;;;;;5.68;76.11;101665.31;6240960;22;20199;-77
2022/03/13 00:42:48;;;;;;;12.48;9.50;;;;;;;5.65;75.75;101666.09;6303623;22;20026;-79
2022/03/13 00:45:19;;;;;;;14.05;9.82;;;;;;;5.65;75.64;101665.19;6241443;22;20124;-78
2022/03/13 00:47:48;;;;;;;15.10;10.52;;;;;;;5.64;75.91;101663.44;6293359;22;20022;-77
2022/03/13 00:50:17;;;;;;;12.65;9.80;;;;;;;5.62;76.39;101665.09;6261288;22;20023;-77
2022/03/13 00:52:47;;;;;;;13.93;10.15;;;;;;;5.61;75.74;101660.69;6274420;22;20019;-76
2022/03/13 00:55:16;;;;;;;13.32;10.13;;;;;;;5.61;75.83;101660.69;6208963;22;20023;-77
2022/03/13 00:57:45;;;;;;;12.05;8.90;;;;;;;5.61;75.63;101660.69;6277791;22;20030;-77
2022/03/13 01:00:14;;;;;;;11.13;8.55;;;;;;;5.60;75.40;101648.47;6237411;22;20026;-78
2022/03/13 01:02:43;;;;;;;13.85;8.98;;;;;;;5.59;75.45;101654.50;6269345;22;20019;-77
2022/03/13 01:05:21;;;;;;;10.93;9.23;;;;;;;5.59;75.92;101651.91;6270778;22;20019;-78
2022/03/13 01:07:57;;;;;;;11.20;8.95;;;;;;;5.55;75.98;101652.63;6261925;22;20026;-76
2022/03/13 01:10:29;;;;;;;12.60;9.13;;;;;;;5.54;75.67;101658.69;6294520;22;20011;-78
2022/03/13 01:13:00;;;;;;;12.93;9.85;;;;;;;5.51;75.43;101658.59;6326018;22;20030;-77
2022/03/13 01:15:29;;;;;;;12.55;9.75;;;;;;;5.47;75.96;101658.47;6300425;22;20030;-77
2022/03/13 01:17:58;;;;;;;13.07;9.25;;;;;;;5.45;75.94;101652.28;6333349;22;20018;-79
2022/03/13 01:20:26;;;;;;;12.13;8.90;;;;;;;5.42;75.93;101649.53;6253807;22;20022;-77
2022/03/13 01:22:55;;;;;;;11.77;9.45;;;;;;;5.42;75.85;101651.28;6306712;22;20026;-78
2022/03/13 01:25:26;;;;;;;11.80;9.38;;;;;;;5.41;75.88;101646.91;6285384;22;20025;-76
2022/03/13 01:27:58;;;;;;;14.23;9.15;;;;;;;5.41;76.04;101644.28;6304793;22;20018;-77
2022/03/13 01:30:29;;;;;;;13.57;9.13;;;;;;;5.39;75.69;101643.34;6276121;22;20011;-78
2022/03/13 01:32:59;;;;;;;13.15;10.27;;;;;;;5.37;76.03;101647.59;6243142;22;20030;-78
2022/03/13 01:35:27;;;;;;;11.88;9.00;;;;;;;5.35;76.17;101658.03;6239177;22;20443;-77
2022/03/13 01:37:57;;;;;;;14.55;9.95;;;;;;;5.33;76.03;101645.69;6272123;22;20019;-78
2022/03/13 01:40:26;;;;;;;11.15;9.88;;;;;;;5.31;76.24;101648.25;6262306;22;20011;-77
2022/03/13 01:42:55;;;;;;;16.52;10.30;;;;;;;5.29;76.50;101642.09;6306563;22;20290;-77
2022/03/13 01:45:26;;;;;;;14.52;9.10;;;;;;;5.27;76.62;101648.97;6283001;22;20019;-77
2022/03/13 01:47:54;;;;;;;11.07;9.07;;;;;;;5.26;76.13;101647.22;6270640;22;20023;-76
2022/03/13 01:50:26;;;;;;;12.30;8.80;;;;;;;5.23;76.40;101640.13;6281911;22;20518;-77
2022/03/13 01:52:57;;;;;;;11.43;9.05;;;;;;;5.22;76.85;101640.97;6301881;22;20021;-79
2022/03/13 01:55:26;;;;;;;11.57;9.48;;;;;;;5.21;77.01;101635.69;6271887;22;20360;-76
2022/03/13 01:57:54;;;;;;;10.82;9.25;;;;;;;5.19;77.38;101632.13;6306298;22;20022;-77
2022/03/13 02:00:23;;;;;;;12.77;9.38;;;;;;;5.18;76.53;101632.94;6271946;22;20030;-77
2022/03/13 02:02:51;;;;;;;12.02;9.20;;;;;;;5.15;77.18;101623.28;6246725;22;20022;-77
2022/03/13 02:05:34;;;;;;;13.20;10.10;;;;;;;5.14;77.65;101620.59;6244526;22;20049;-78
2022/03/13 02:08:12;;;;;;;12.40;9.85;;;;;;;5.12;77.10;101609.22;6263483;22;20215;-79
2022/03/13 02:10:41;;;;;;;13.45;9.50;;;;;;;5.10;77.48;101614.38;6295399;22;20022;-77
2022/03/13 02:13:13;;;;;;;15.10;10.57;;;;;;;5.08;78.04;101611.72;6269313;22;20131;-78
2022/03/13 02:15:41;;;;;;;13.90;9.88;;;;;;;5.07;77.73;101614.28;6337102;22;20479;-77
2022/03/13 02:18:10;;;;;;;12.60;10.13;;;;;;;5.04;77.90;101614.16;6280484;22;20131;-77
2022/03/13 02:20:45;;;;;;;13.27;9.90;;;;;;;5.02;78.49;101621.91;6308910;22;20065;-78
2022/03/13 02:23:24;;;;;;;11.65;10.05;;;;;;;4.99;78.97;101610.47;6241813;22;20023;-78
2022/03/13 02:26:00;;;;;;;15.27;9.98;;;;;;;4.97;78.96;101617.34;6237039;22;20352;-77
2022/03/13 02:28:32;;;;;;;12.82;9.32;;;;;;;4.96;78.21;101613.84;6310293;22;20018;-77
2022/03/13 02:31:11;;;;;;;14.52;10.57;;;;;;;4.96;78.43;101611.25;6334295;22;20059;-77
2022/03/13 02:33:39;;;;;;;13.93;9.15;;;;;;;4.94;79.16;101602.47;6257269;22;20019;-77
2022/03/13 02:36:44;;;;;;;14.98;9.85;;;;;;;4.95;79.82;101617.28;6311144;22;20014;-77
2022/03/13 02:39:16;;;;;;;13.20;9.30;;;;;;;4.95;79.12;101603.34;6269358;22;20015;-77
2022/03/13 02:41:45;;;;;;;12.60;9.45;;;;;;;4.95;79.43;101609.44;6317068;22;20011;-77
2022/03/13 02:44:17;;;;;;;18.45;10.85;;;;;;;4.94;79.69;101598.97;6322657;22;20168;-77
2022/03/13 02:46:45;;;;;;;13.40;10.27;;;;;;;4.93;79.73;101605.91;6272311;22;20042;-78
2022/03/13 02:49:19;;;;;;;13.10;11.07;;;;;;;4.92;80.54;101604.13;6294660;22;20210;-78
2022/03/13 02:51:51;;;;;;;15.63;9.63;;;;;;;4.89;80.55;101597.06;6272663;22;20021;-77
2022/03/13 02:54:20;;;;;;;12.82;10.57;;;;;;;4.89;80.81;101606.63;6332243;22;20029;-78
2022/03/13 02:56:49;;;;;;;13.52;10.60;;;;;;;4.86;81.01;101609.13;6278870;22;20014;-77
2022/03/13 02:59:18;;;;;;;14.90;10.43;;;;;;;4.85;81.58;101604.72;6301955;22;20206;-77
2022/03/13 03:01:48;;;;;;;15.07;10.07;;;;;;;4.83;81.76;101598.56;6284595;22;20019;-77
2022/03/13 03:04:17;;;;;;;13.35;10.30;;;;;;;4.81;81.67;101598.50;6307977;22;20372;-77
2022/03/13 03:07:01;;;;;;;13.98;10.73;;;;;;;4.81;82.17;101602.81;6260289;22;20044;-77
2022/03/13 03:09:32;;;;;;;12.85;10.70;;;;;;;4.79;81.48;101592.31;6271335;22;20027;-77
2022/03/13 03:12:04;;;;;;;12.48;10.43;;;;;;;4.78;81.76;101593.16;6258062;22;20022;-77
2022/03/13 03:14:34;;;;;;;12.55;10.73;;;;;;;4.77;82.07;101588.75;6279336;22;20338;-77
2022/03/13 03:17:04;;;;;;;14.68;10.75;;;;;;;4.75;82.17;101589.53;6245683;22;20027;-77
2022/03/13 03:19:33;;;;;;;14.87;11.80;;;;;;;4.74;82.30;101593.84;6299398;22;20621;-77
2022/03/13 03:22:02;;;;;;;20.17;10.90;;;;;;;4.73;82.79;101588.59;6279836;22;20530;-77
2022/03/13 03:24:32;;;;;;;9.45;7.82;;;;;;;4.71;82.99;101592.84;6282762;22;20022;-77
2022/03/13 03:27:01;;;;;;;16.17;11.23;;;;;;;4.71;82.67;101592.84;6279558;22;20014;-77
2022/03/13 03:29:30;;;;;;;13.57;10.65;;;;;;;4.70;82.67;101594.56;6271500;22;20018;-77
2022/03/13 03:31:58;;;;;;;15.02;10.55;;;;;;;4.71;82.56;101590.22;6256521;22;20022;-78
2022/03/13 03:34:30;;;;;;;13.57;10.35;;;;;;;4.71;82.43;101593.75;6283903;22;20339;-77
2022/03/13 03:37:01;;;;;;;14.98;10.52;;;;;;;4.69;83.22;101590.19;6307418;22;20033;-78
2022/03/13 03:39:32;;;;;;;13.25;10.13;;;;;;;4.68;82.67;101583.19;6285430;22;20022;-77
2022/03/13 03:42:02;;;;;;;14.50;10.73;;;;;;;4.67;82.58;101587.53;6301566;22;20325;-77
2022/03/13 03:44:31;;;;;;;16.42;10.38;;;;;;;4.67;82.93;101592.75;6261933;22;20471;-77
2022/03/13 03:46:59;;;;;;;12.88;10.85;;;;;;;4.67;83.19;101582.28;6251789;22;20034;-77
2022/03/13 03:49:28;;;;;;;14.98;10.77;;;;;;;4.65;82.99;101583.97;6259704;22;20452;-77
2022/03/13 03:51:57;;;;;;;27.65;11.80;;;;;;;4.65;83.43;101588.28;6281819;22;20023;-77
2022/03/13 03:54:26;;;;;;;14.13;11.23;;;;;;;4.64;82.94;101592.59;6306934;22;20022;-77
2022/03/13 03:56:54;;;;;;;14.02;10.82;;;;;;;4.63;83.58;101587.31;6303192;22;20030;-77
2022/03/13 03:59:48;;;;;;;13.30;11.45;;;;;;;4.63;83.58;101585.63;6259093;22;20314;-77
2022/03/13 04:02:17;;;;;;;13.82;10.65;;;;;;;4.63;83.17;101588.22;6274186;22;20023;-78
2022/03/13 04:04:46;;;;;;;15.38;10.98;;;;;;;4.63;82.92;101587.31;6259585;22;20023;-77
2022/03/13 04:07:14;;;;;;;13.98;10.60;;;;;;;4.62;83.66;101593.38;6301298;22;20171;-78
2022/03/13 04:09:45;;;;;;;15.13;11.05;;;;;;;4.65;83.60;101596.09;6279803;22;20444;-77
2022/03/13 04:12:14;;;;;;;13.05;11.00;;;;;;;4.66;83.13;101585.72;6306306;22;20133;-77
2022/03/13 04:14:42;;;;;;;17.40;10.82;;;;;;;4.67;83.03;101582.28;6312334;22;20019;-78
2022/03/13 04:17:13;;;;;;;14.25;10.13;;;;;;;4.69;82.96;101588.47;6282319;22;20022;-78
2022/03/13 04:19:42;;;;;;;12.90;10.00;;;;;;;4.68;82.84;101586.66;6285419;22;20019;-76
2022/03/13 04:22:17;;;;;;;16.55;10.50;;;;;;;4.67;82.37;101579.69;6283540;22;20216;-77
2022/03/13 04:24:45;;;;;;;14.05;10.93;;;;;;;4.67;82.76;101584.03;6309901;22;20019;-77
2022/03/13 04:27:14;;;;;;;11.23;10.02;;;;;;;4.66;82.97;101582.22;6246409;22;20029;-77
2022/03/13 04:29:42;;;;;;;13.18;10.10;;;;;;;4.65;82.37;101583.97;6339898;22;20018;-77
2022/03/13 04:32:12;;;;;;;13.05;9.40;;;;;;;4.64;82.33;101583.91;6297910;22;20108;-77
2022/03/13 04:34:41;;;;;;;14.80;10.70;;;;;;;4.63;82.14;101583.00;6252749;22;20011;-77
2022/03/13 04:37:10;;;;;;;14.90;10.45;;;;;;;4.59;82.83;101581.09;6306740;22;20526;-77
2022/03/13 04:39:39;;;;;;;13.75;10.23;;;;;;;4.58;82.96;101581.06;6300219;22;20542;-77
2022/03/13 04:42:08;;;;;;;13.52;10.68;;;;;;;4.55;82.59;101581.81;6277386;22;20039;-77
2022/03/13 04:44:37;;;;;;;13.10;9.93;;;;;;;4.52;82.55;101586.00;6310883;22;20025;-78
2022/03/13 04:47:05;;;;;;;13.40;9.80;;;;;;;4.48;82.68;101595.47;6236960;22;20135;-77
2022/03/13 04:49:36;;;;;;;12.80;10.45;;;;;;;4.44;82.55;101593.53;6260809;22;20355;-77
2022/03/13 04:52:05;;;;;;;15.35;9.20;;;;;;;4.42;82.94;101589.97;6278995;22;20147;-78
2022/03/13 04:54:36;;;;;;;11.80;10.07;;;;;;;4.38;82.77;101588.06;6312793;22;20015;-77
2022/03/13 04:57:05;;;;;;;13.00;9.75;;;;;;;4.35;82.02;101587.94;6265939;22;20019;-77
2022/03/13 04:59:34;;;;;;;13.43;10.48;;;;;;;4.32;82.24;101593.06;6230511;22;20015;-77
2022/03/13 05:02:03;;;;;;;12.00;9.27;;;;;;;4.28;82.33;101581.59;6290946;22;20022;-78
2022/03/13 05:04:32;;;;;;;13.25;9.70;;;;;;;4.25;82.35;101577.16;6331420;22;20442;-77
2022/03/13 05:07:06;;;;;;;12.63;9.38;;;;;;;4.22;82.51;101579.63;6271243;22;20254;-77
2022/03/13 05:09:35;;;;;;;16.95;9.45;;;;;;;4.19;81.98;101571.66;6338631;22;20022;-78
2022/03/13 05:12:07;;;;;;;13.35;9.55;;;;;;;4.17;82.13;101581.16;6293572;22;20487;-77
2022/03/13 05:14:37;;;;;;;12.55;9.25;;;;;;;4.15;82.34;101579.31;6296368;22;20019;-77
2022/03/13 05:17:05;;;;;;;12.23;9.77;;;;;;;4.15;82.21;101572.38;6318937;22;20345;-77
2022/03/13 05:19:34;;;;;;;16.00;10.23;;;;;;;4.12;82.06;101564.44;6312675;22;20019;-77
2022/03/13 05:22:03;;;;;;;13.25;9.32;;;;;;;4.09;82.02;101573.00;6254554;22;20547;-78
2022/03/13 05:24:31;;;;;;;12.95;9.88;;;;;;;4.09;81.50;101574.75;6284000;22;20011;-78
2022/03/13 05:27:00;;;;;;;12.90;8.80;;;;;;;4.07;81.09;101571.19;6276679;22;20015;-79
2022/03/13 05:29:28;;;;;;;13.38;9.32;;;;;;;4.08;80.58;101578.16;6308822;22;20019;-77
2022/03/13 05:31:57;;;;;;;12.30;9.43;;;;;;;4.06;80.86;101574.59;6333248;22;20010;-77
2022/03/13 05:34:26;;;;;;;12.75;9.18;;;;;;;4.06;80.76;101574.59;6245753;22;20452;-77
2022/03/13 05:36:54;;;;;;;9.75;8.70;;;;;;;4.04;80.18;101577.13;6246591;22;20023;-77
2022/03/13 05:39:23;;;;;;;11.38;8.23;;;;;;;4.03;79.95;101569.28;6246641;22;20340;-77
2022/03/13 05:41:52;;;;;;;17.27;11.23;;;;;;;4.03;80.15;101561.47;6307411;22;20478;-79
2022/03/13 05:44:22;;;;;;;11.20;9.13;;;;;;;4.03;79.58;101566.69;6331982;22;20029;-77
2022/03/13 05:46:51;;;;;;;12.02;9.18;;;;;;;4.02;79.85;101573.59;6258567;22;20019;-77
2022/03/13 05:49:20;;;;;;;11.93;8.55;;;;;;;4.03;79.37;101575.38;6234581;22;20050;-77
2022/03/13 05:51:48;;;;;;;11.82;9.50;;;;;;;4.05;79.72;101580.66;6260244;22;20019;-78
2022/03/13 05:54:17;;;;;;;11.52;8.43;;;;;;;4.05;79.51;101580.66;6259405;22;20219;-77
2022/03/13 05:56:46;;;;;;;11.18;8.23;;;;;;;4.05;78.92;101593.72;6259874;22;20007;-77
2022/03/13 05:59:14;;;;;;;13.90;8.90;;;;;;;4.07;79.40;101594.66;6248204;22;20128;-77
2022/03/13 06:01:43;;;;;;;12.45;8.75;;;;;;;4.07;79.58;101592.06;6252999;22;20026;-77
2022/03/13 06:04:11;;;;;;;11.38;8.38;;;;;;;4.08;78.91;101596.41;6294451;22;20285;-77
2022/03/13 06:06:42;;;;;;;11.32;8.20;;;;;;;4.08;78.66;101596.41;6278840;22;20339;-78
2022/03/13 06:09:12;;;;;;;11.75;8.88;;;;;;;4.10;78.46;101597.38;6273343;22;20015;-77
2022/03/13 06:11:41;;;;;;;11.55;8.38;;;;;;;4.10;78.16;101592.16;6297979;22;20022;-76
2022/03/13 06:14:10;;;;;;;12.63;8.65;;;;;;;4.13;78.28;101597.50;6307878;22;20023;-76
2022/03/13 06:16:38;;;;;;;12.10;7.70;;;;;;;4.15;77.60;101606.28;6303060;22;20356;-78
2022/03/13 06:19:07;;;;;;;12.85;8.40;;;;;;;4.18;77.35;101598.59;6310657;22;20018;-77
2022/03/13 06:21:37;;;;;;;9.00;7.60;;;;;;;4.21;77.09;101611.75;6303166;22;20027;-77
2022/03/13 06:24:06;;;;;;;10.98;8.55;;;;;;;4.24;77.64;101616.22;6249909;22;20159;-77
2022/03/13 06:26:36;;;;;;;9.18;7.75;;;;;;;4.24;77.13;101622.31;6312169;22;20344;-77
2022/03/13 06:29:07;;;;;;;12.23;8.15;;;;;;;4.23;76.70;101617.03;6258045;22;20018;-77
2022/03/13 06:31:35;;;;;;;11.90;8.60;;;;;;;4.23;75.66;101624.88;6295925;22;20031;-78
2022/03/13 06:34:04;;;;;;;11.45;8.10;;;;;;;4.21;76.21;101627.41;6282611;22;20022;-76
2022/03/13 06:36:34;;;;;;;11.63;8.40;;;;;;;4.23;76.25;101624.88;6275413;22;20011;-77
2022/03/13 06:39:03;;;;;;;11.45;8.30;;;;;;;4.26;76.52;101628.50;6245523;22;20276;-77
2022/03/13 06:41:31;;;;;;;9.15;7.63;;;;;;;4.29;76.02;101631.25;6278350;22;20019;-77
2022/03/13 06:44:00;;;;;;;11.52;7.80;;;;;;;4.33;75.58;101644.41;6256442;22;20340;-76
2022/03/13 06:46:29;;;;;;;10.02;7.53;;;;;;;4.39;75.29;101636.84;6307566;22;20010;-77
2022/03/13 06:49:05;;;;;;;9.38;7.60;;;;;;;4.55;74.51;101652.28;6250964;22;20462;-78
2022/03/13 06:51:40;;;;;;;10.77;8.02;;;;;;;4.65;74.13;101638.78;6303628;22;20023;-76
2022/03/13 06:54:09;;;;;;;14.25;7.97;;;;;;;4.72;74.12;101641.63;6275919;22;20065;-77
2022/03/13 06:56:40;;;;;;;13.77;8.23;;;;;;;4.86;73.51;101637.84;6286282;22;20011;-77
2022/03/13 06:59:09;;;;;;;8.93;7.45;;;;;;;5.08;73.41;101637.84;6308142;22;20230;-77
2022/03/13 07:01:37;;;;;;;11.18;8.32;;;;;;;5.31;71.70;101637.81;6307246;22;20471;-77
2022/03/13 07:04:06;;;;;;;10.07;7.78;;;;;;;5.38;70.96;101628.47;6283138;22;20230;-78
2022/03/13 07:06:35;;;;;;;10.18;8.35;;;;;;;5.33;71.03;101630.03;6313385;22;20011;-77
2022/03/13 07:09:04;;;;;;;11.70;7.88;;;;;;;5.25;71.66;101643.72;6267327;22;20218;-77
2022/03/13 07:11:33;;;;;;;11.18;7.75;;;;;;;5.21;71.20;101639.19;6311256;22;20011;-78
2022/03/13 07:14:11;;;;;;;11.07;8.45;;;;;;;5.12;71.31;101628.38;6298245;22;20503;-78
2022/03/13 07:16:39;;;;;;;11.50;8.50;;;;;;;5.04;70.47;101620.25;6283755;22;20018;-78
2022/03/13 07:19:08;;;;;;;9.40;7.45;;;;;;;4.99;70.99;101627.06;6252896;22;20011;-77
2022/03/13 07:21:38;;;;;;;12.63;8.25;;;;;;;4.98;71.42;101627.00;6251376;22;20471;-78
2022/03/13 07:24:06;;;;;;;10.05;7.90;;;;;;;4.97;70.71;101620.88;6230524;22;20596;-78
2022/03/13 07:26:35;;;;;;;10.23;8.60;;;;;;;4.99;71.18;101623.53;6308488;22;20019;-77
2022/03/13 07:29:04;;;;;;;9.95;8.32;;;;;;;5.03;71.87;101625.44;6333989;22;20023;-77
2022/03/13 07:31:32;;;;;;;11.00;7.85;;;;;;;5.05;71.19;101626.41;6280751;22;20014;-76
2022/03/13 07:34:01;;;;;;;11.52;9.18;;;;;;;5.08;72.23;101624.78;6307080;22;20460;-77
2022/03/13 07:36:31;;;;;;;10.60;8.32;;;;;;;5.12;71.55;101632.72;6301537;22;20014;-77
2022/03/13 07:39:01;;;;;;;11.13;8.90;;;;;;;5.15;71.70;101633.75;6281382;22;20023;-77
2022/03/13 07:41:31;;;;;;;11.65;8.93;;;;;;;5.18;71.14;101632.94;6297463;22;20019;-77
2022/03/13 07:44:03;;;;;;;10.45;7.68;;;;;;;5.22;71.76;101627.03;6280495;22;20022;-79
2022/03/13 07:46:32;;;;;;;12.15;9.75;;;;;;;5.26;71.21;101621.09;6277290;22;20011;-77
2022/03/13 07:49:01;;;;;;;13.98;8.77;;;;;;;5.31;71.35;101622.13;6276160;22;20022;-77
2022/03/13 07:51:30;;;;;;;9.75;8.52;;;;;;;5.37;71.26;101630.22;6285673;22;20011;-77
2022/03/13 07:53:58;;;;;;;11.88;8.77;;;;;;;5.46;71.69;101640.09;6307097;22;20018;-78
2022/03/13 07:56:29;;;;;;;9.95;7.72;;;;;;;5.51;70.82;101635.94;6246681;22;20340;-77
2022/03/13 07:58:57;;;;;;;9.80;7.70;;;;;;;5.57;70.94;101640.50;6335746;22;20019;-77
2022/03/13 08:01:28;;;;;;;14.05;8.50;;;;;;;5.64;71.56;101642.50;6312359;22;20308;-78
2022/03/13 08:04:01;;;;;;;10.23;7.70;;;;;;;5.72;71.11;101641.03;6279185;22;20033;-77
2022/03/13 08:06:39;;;;;;;10.52;8.13;;;;;;;5.78;70.51;101640.38;6312889;22;20019;-78
2022/03/13 08:09:09;;;;;;;11.93;8.07;;;;;;;5.88;70.30;101641.59;6307314;22;20210;-78
2022/03/13 08:11:38;;;;;;;8.90;7.82;;;;;;;5.92;70.33;101636.53;6272693;22;20027;-77
2022/03/13 08:14:12;;;;;;;12.43;8.63;;;;;;;5.99;70.80;101641.19;6301485;22;20027;-78
2022/03/13 08:16:40;;;;;;;11.23;7.63;;;;;;;6.05;69.95;101641.38;6269847;22;20015;-78
2022/03/13 08:19:10;;;;;;;13.68;8.82;;;;;;;6.07;69.97;101641.44;6236356;22;20515;-79
2022/03/13 08:21:39;;;;;;;8.13;6.67;;;;;;;6.08;69.74;101644.94;6280005;22;20019;-78
2022/03/13 08:24:09;;;;;;;10.48;7.95;;;;;;;6.09;69.43;101645.00;6290997;22;20249;-79
2022/03/13 08:26:42;;;;;;;11.40;8.15;;;;;;;6.14;70.07;101651.25;6265831;22;20026;-77
2022/03/13 08:29:15;;;;;;;10.73;8.52;;;;;;;6.22;70.27;101639.34;6297792;22;20101;-77
2022/03/13 08:31:44;;;;;;;9.98;8.07;;;;;;;6.34;69.75;101645.81;6297541;22;20050;-77
2022/03/13 08:34:15;;;;;;;8.95;7.63;;;;;;;6.48;69.96;101643.66;6277242;22;20015;-76
2022/03/13 08:36:47;;;;;;;11.57;8.77;;;;;;;6.58;69.34;101643.13;6251415;22;20011;-76
2022/03/13 08:39:15;;;;;;;10.75;8.90;;;;;;;6.72;69.33;101640.94;6269153;22;20026;-75
2022/03/13 08:41:44;;;;;;;12.18;8.10;;;;;;;6.85;68.89;101644.84;6239751;22;20034;-78
2022/03/13 08:44:13;;;;;;;11.02;8.70;;;;;;;6.97;69.14;101638.22;6264741;22;20019;-77
2022/03/13 08:46:44;;;;;;;12.02;8.63;;;;;;;7.07;67.94;101634.16;6299972;22;20467;-77
2022/03/13 08:49:19;;;;;;;8.50;7.45;;;;;;;7.20;68.12;101632.78;6270667;22;20027;-77
2022/03/13 08:51:47;;;;;;;10.50;8.35;;;;;;;7.35;67.37;101627.09;6298572;22;20030;-77
2022/03/13 08:54:16;;;;;;;10.30;8.82;;;;;;;7.48;67.53;101618.72;6268156;22;20026;-77
2022/03/13 08:56:48;;;;;;;9.90;7.70;;;;;;;7.61;66.79;101626.09;6276014;22;20015;-77
2022/03/13 08:59:20;;;;;;;9.23;8.27;;;;;;;7.78;66.85;101621.31;6253829;22;20025;-78
2022/03/13 09:01:53;;;;;;;11.05;8.23;;;;;;;7.98;66.46;101628.84;6286478;22;20019;-77
2022/03/13 09:04:24;;;;;;;12.23;8.55;;;;;;;8.14;66.86;101625.75;6241349;22;20026;-77
2022/03/13 09:06:54;;;;;;;10.27;9.20;;;;;;;8.27;66.17;101632.22;6268761;22;20026;-78
2022/03/13 09:09:23;;;;;;;10.40;8.60;;;;;;;8.40;66.16;101622.91;6255070;22;20262;-77
2022/03/13 09:11:56;;;;;;;14.00;8.57;;;;;;;8.52;65.38;101620.59;6288761;22;20046;-78
2022/03/13 09:14:26;;;;;;;11.10;8.75;;;;;;;8.66;65.24;101622.66;6229410;22;20027;-78
2022/03/13 09:16:55;;;;;;;29.98;19.85;;;;;;;8.82;64.74;101618.66;6269042;22;20503;-78
2022/03/13 09:19:23;;;;;;;14.70;9.27;;;;;;;9.01;65.01;101618.22;6262016;22;20019;-77
2022/03/13 09:21:56;;;;;;;13.98;8.73;;;;;;;9.26;65.05;101619.63;6260606;22;20015;-77
2022/03/13 09:24:25;;;;;;;10.73;8.52;;;;;;;9.49;63.46;101616.56;6270136;22;20027;-82
2022/03/13 09:26:54;;;;;;;13.95;8.75;;;;;;;9.62;62.99;101618.59;6275256;22;20385;-79
2022/03/13 09:29:23;;;;;;;16.10;9.63;;;;;;;9.80;63.00;101617.19;6226453;22;20030;-78
2022/03/13 09:31:56;;;;;;;11.55;8.40;;;;;;;10.00;62.03;101621.06;6237039;22;20023;-77
2022/03/13 09:34:25;;;;;;;9.90;8.38;;;;;;;10.16;61.15;101616.94;6299412;22;20023;-79
2022/03/13 09:36:54;;;;;;;9.63;8.07;;;;;;;10.26;60.15;101617.97;6252413;22;20294;-78
2022/03/13 09:39:23;;;;;;;13.98;8.93;;;;;;;10.39;59.61;101619.09;6296643;22;20015;-78
2022/03/13 09:41:55;;;;;;;9.55;8.55;;;;;;;10.46;58.92;101615.72;6291107;22;20015;-78
2022/03/13 09:44:25;;;;;;;9.98;8.07;;;;;;;10.51;58.83;101625.47;6279916;22;20012;-78
2022/03/13 09:46:54;;;;;;;10.70;9.23;;;;;;;10.57;57.99;101621.13;6280764;22;20325;-79
2022/03/13 09:49:24;;;;;;;10.38;8.85;;;;;;;10.64;57.56;101617.72;6272706;22;20030;-78
2022/03/13 09:51:54;;;;;;;12.88;9.38;;;;;;;10.69;57.71;101614.31;6273686;22;20015;-79
2022/03/13 09:54:22;;;;;;;12.68;8.98;;;;;;;10.74;57.43;101609.13;6246165;22;20026;-78
2022/03/13 09:56:52;;;;;;;16.02;8.85;;;;;;;10.84;56.72;101613.66;6264095;22;20015;-79
2022/03/13 09:59:21;;;;;;;9.80;8.70;;;;;;;10.95;56.59;101600.63;6238730;22;20019;-76
2022/03/13 10:01:51;;;;;;;10.40;8.68;;;;;;;11.06;56.59;101590.22;6240904;22;20023;-75
2022/03/13 10:04:19;;;;;;;10.27;8.35;;;;;;;11.11;55.67;101592.06;6238573;22;20027;-77
2022/03/13 10:07:02;;;;;;;13.85;9.60;;;;;;;11.17;54.96;101591.25;6303801;22;20020;-77
2022/03/13 10:09:31;;;;;;;11.00;9.43;;;;;;;11.22;55.02;101586.91;6255335;22;20245;-77
2022/03/13 10:12:11;;;;;;;13.43;9.20;;;;;;;11.27;55.49;101585.22;6268712;22;20026;-75
2022/03/13 10:15:00;;;;;;;11.43;8.45;;;;;;;11.36;54.56;101583.53;6297483;22;20015;-76
2022/03/13 10:17:31;;;;;;;10.77;9.30;;;;;;;11.42;55.46;101581.88;6276324;22;20015;-76
2022/03/13 10:20:14;;;;;;;12.27;9.45;;;;;;;11.43;54.05;101580.97;6303316;22;20026;-76
2022/03/13 10:22:48;;;;;;;11.65;8.55;;;;;;;11.44;55.40;101576.63;6303068;22;20235;-76
2022/03/13 10:25:30;;;;;;;10.15;9.05;;;;;;;11.48;55.73;101570.50;6260947;22;20348;-76
2022/03/13 10:28:15;;;;;;;10.07;8.88;;;;;;;11.54;56.83;101569.69;6289682;22;20023;-75
2022/03/13 10:30:47;;;;;;;9.98;8.35;;;;;;;11.48;57.89;101562.56;6281519;22;20226;-76
2022/03/13 10:33:16;;;;;;;9.88;8.48;;;;;;;11.40;58.01;101564.22;6266813;22;20046;-76
2022/03/13 10:35:47;;;;;;;12.35;8.45;;;;;;;11.35;58.63;101561.53;6241716;22;20030;-76
2022/03/13 10:38:18;;;;;;;12.27;8.45;;;;;;;11.36;59.16;101551.88;6298525;22;20016;-77
2022/03/13 10:40:56;;;;;;;11.80;8.95;;;;;;;11.38;59.89;101560.69;6297248;22;20449;-76
2022/03/13 10:43:27;;;;;;;10.60;9.35;;;;;;;11.40;59.94;101557.22;6295631;22;20030;-76
2022/03/13 10:45:57;;;;;;;10.02;9.02;;;;;;;11.33;59.31;101555.38;6249515;22;20023;-76
2022/03/13 10:48:32;;;;;;;9.85;8.50;;;;;;;11.24;59.28;101553.50;6236202;22;20030;-77
2022/03/13 10:51:03;;;;;;;16.40;9.50;;;;;;;11.13;59.53;101552.47;6274338;22;20019;-76
2022/03/13 10:53:38;;;;;;;11.73;9.23;;;;;;;11.11;59.66;101543.66;6254600;22;20011;-78
2022/03/13 10:56:14;;;;;;;15.73;9.43;;;;;;;11.10;60.02;101549.84;6287902;22;20562;-77
2022/03/13 10:58:45;;;;;;;10.20;8.63;;;;;;;11.03;59.00;101548.84;6289887;22;20015;-77
2022/03/13 11:01:19;;;;;;;9.85;8.45;;;;;;;10.92;59.60;101545.19;6272974;22;20112;-77
2022/03/13 11:03:53;;;;;;;13.57;9.45;;;;;;;10.82;59.67;101553.88;6260731;22;20027;-76
2022/03/13 11:06:26;;;;;;;11.90;9.05;;;;;;;10.65;59.30;101551.00;6289601;22;20050;-78
2022/03/13 11:08:55;;;;;;;13.38;9.60;;;;;;;10.50;59.02;101555.16;6269358;22;20016;-77
2022/03/13 11:11:27;;;;;;;14.02;9.98;;;;;;;10.39;59.21;101546.22;6297396;22;20023;-76
2022/03/13 11:13:59;;;;;;;15.57;9.77;;;;;;;10.37;59.65;101544.44;6285433;22;20255;-78
2022/03/13 11:16:33;;;;;;;11.82;8.50;;;;;;;10.34;59.59;101555.81;6253652;22;20485;-76
2022/03/13 11:19:11;;;;;;;12.05;8.80;;;;;;;10.34;59.86;101546.16;6271973;22;20011;-77
2022/03/13 11:21:39;;;;;;;12.80;9.30;;;;;;;10.41;60.24;101552.38;6246307;22;20016;-78
2022/03/13 11:24:09;;;;;;;11.73;9.47;;;;;;;10.53;60.54;101543.81;6276204;22;20644;-78
2022/03/13 11:26:42;;;;;;;15.63;10.07;;;;;;;10.63;60.38;101534.28;6286237;22;20030;-78
2022/03/13 11:29:12;;;;;;;11.65;8.70;;;;;;;10.73;60.17;101538.78;6258695;22;20003;-79
2022/03/13 11:31:45;;;;;;;13.50;9.40;;;;;;;10.81;60.04;101533.63;6250094;22;21037;-77
2022/03/13 11:34:18;;;;;;;11.57;9.73;;;;;;;10.88;59.89;101533.72;6261170;22;20023;-77
2022/03/13 11:36:48;;;;;;;;;;;;;;;10.97;60.47;101532.09;6299762;22;20023;-75
2022/03/13 11:39:27;;;;;;;15.23;9.30;;;;;;;11.01;60.38;101529.50;6303906;22;19926;-77
2022/03/13 11:41:57;;;;;;;13.40;9.57;;;;;;;11.05;60.00;101522.50;6293408;22;20523;-77